createdAt,value
2023-03-22T00:00:12.786Z,56.17
2023-03-22T00:05:15.414Z,56.87
2023-03-22T00:10:17.988Z,54.70
2023-03-22T00:15:20.721Z,52.13
2023-03-22T00:20:23.742Z,52.87
2023-03-22T00:25:26.864Z,54.67
2023-03-22T00:30:29.388Z,57.30
2023-03-22T00:35:32.267Z,46.60
2023-03-22T00:40:34.800Z,45.13
2023-03-22T00:45:38.208Z,50.93
2023-03-22T00:50:41.330Z,58.70
2023-03-22T00:55:44.042Z,50.23
2023-03-22T01:01:15.338Z,55.57
2023-03-22T01:06:18.439Z,52.33
2023-03-22T01:11:21.610Z,56.30
2023-03-22T01:16:24.429Z,54.00
2023-03-22T01:21:27.205Z,52.20
2023-03-22T01:26:29.918Z,54.53
2023-03-22T01:31:32.467Z,48.73
2023-03-22T01:36:35.009Z,54.27
2023-03-22T01:41:38.407Z,50.53
2023-03-22T01:46:50.629Z,53.90
2023-03-22T01:51:58.964Z,38.57
2023-03-22T01:57:38.485Z,47.97
2023-03-22T02:02:48.794Z,54.93
2023-03-22T02:07:59.494Z,42.07
2023-03-22T02:13:19.824Z,46.87
2023-03-22T02:18:35.923Z,53.33
2023-03-22T02:23:53.650Z,51.37
2023-03-22T02:29:34.631Z,52.37
2023-03-22T02:34:39.938Z,41.17
2023-03-22T02:39:56.279Z,52.27
2023-03-22T02:45:09.040Z,45.90
2023-03-22T02:50:22.964Z,41.83
2023-03-22T02:55:37.640Z,45.97
2023-03-22T03:00:41.858Z,47.33
2023-03-22T03:05:55.275Z,43.10
2023-03-22T03:10:57.917Z,43.57
2023-03-22T03:16:03.024Z,47.10
2023-03-22T03:21:18.127Z,44.63
2023-03-22T03:26:35.943Z,44.47
2023-03-22T03:31:47.861Z,44.87
2023-03-22T03:37:09.695Z,50.90
2023-03-22T03:42:17.886Z,38.33
2023-03-22T03:47:21.843Z,46.63
2023-03-22T03:52:26.275Z,46.60
2023-03-22T03:57:28.950Z,45.37
2023-03-22T04:02:31.534Z,47.63
2023-03-22T04:07:35.827Z,42.33
2023-03-22T04:12:38.716Z,48.80
2023-03-22T04:17:54.170Z,45.07
2023-03-22T04:23:00.358Z,45.30
2023-03-22T04:28:04.406Z,39.03
2023-03-22T04:33:12.227Z,44.70
2023-03-22T04:38:33.504Z,35.50
2023-03-22T04:43:39.272Z,54.93
2023-03-22T04:48:45.649Z,41.40
2023-03-22T04:53:48.989Z,42.70
2023-03-22T04:58:51.797Z,47.37
2023-03-22T05:03:54.512Z,35.33
2023-03-22T05:08:59.683Z,37.37
2023-03-22T05:14:03.551Z,36.67
2023-03-22T05:19:14.232Z,35.20
2023-03-22T05:24:21.242Z,43.90
2023-03-22T05:29:24.978Z,47.17
2023-03-22T05:34:45.514Z,40.90
2023-03-22T05:40:10.107Z,30.13
2023-03-22T05:45:17.656Z,43.67
2023-03-22T05:50:24.684Z,40.63
2023-03-22T05:55:30.303Z,41.90
2023-03-22T06:00:35.835Z,46.00
2023-03-22T06:05:56.629Z,39.90
2023-03-22T06:11:11.616Z,39.50
2023-03-22T06:16:16.648Z,22.87
2023-03-22T06:21:19.572Z,31.23
2023-03-22T06:26:22.815Z,18.67
2023-03-22T06:31:25.667Z,26.40
2023-03-22T06:36:32.668Z,17.97
2023-03-22T06:41:46.318Z,29.83
2023-03-22T06:46:48.977Z,12.13
2023-03-22T06:52:10.298Z,18.33
2023-03-22T06:57:13.272Z,15.90
2023-03-22T07:02:15.907Z,18.60
2023-03-22T07:07:36.603Z,23.40
2023-03-22T07:12:39.643Z,18.97
2023-03-22T07:17:47.418Z,30.50
2023-03-22T07:22:51.637Z,26.37
2023-03-22T07:27:56.741Z,26.03
2023-03-22T07:33:00.662Z,17.23
2023-03-22T07:38:06.543Z,26.27
2023-03-22T07:43:12.121Z,38.57
2023-03-22T07:48:25.729Z,53.10
2023-03-22T07:53:57.689Z,22.00
2023-03-22T07:59:02.239Z,16.57
2023-03-22T08:04:05.076Z,16.03
2023-03-22T08:09:19.676Z,24.03
2023-03-22T08:14:34.029Z,21.93
2023-03-22T08:19:40.420Z,16.13
2023-03-22T08:24:47.020Z,18.77
2023-03-22T08:30:00.907Z,12.80
2023-03-22T08:35:06.407Z,16.80
2023-03-22T08:40:10.536Z,8.27
2023-03-22T08:45:17.989Z,12.37
2023-03-22T08:50:28.614Z,20.30
2023-03-22T08:55:47.308Z,16.07
2023-03-22T09:01:06.579Z,17.03
2023-03-22T09:06:18.564Z,11.00
2023-03-22T09:11:23.238Z,11.07
2023-03-22T09:16:25.849Z,15.20
2023-03-22T09:21:31.913Z,18.40
2023-03-22T09:26:43.596Z,10.10
2023-03-22T09:31:48.968Z,13.27
2023-03-22T09:37:06.553Z,11.80
2023-03-22T09:42:30.415Z,8.80
2023-03-22T09:47:45.483Z,12.20
2023-03-22T09:52:49.286Z,6.87
2023-03-22T09:58:21.448Z,10.83
2023-03-22T10:03:30.512Z,6.73
2023-03-22T10:09:00.324Z,8.83
2023-03-22T10:14:27.734Z,7.43
2023-03-22T10:19:37.112Z,7.47
2023-03-22T10:24:42.832Z,8.63
2023-03-22T10:29:56.978Z,10.47
2023-03-22T10:34:59.463Z,8.73
2023-03-22T10:40:08.175Z,9.10
2023-03-22T10:45:15.552Z,11.23
2023-03-22T10:50:28.620Z,8.30
2023-03-22T10:55:31.188Z,11.67
2023-03-22T11:00:33.697Z,8.63
2023-03-22T11:05:36.247Z,15.20
2023-03-22T11:10:38.764Z,9.43
2023-03-22T11:15:50.952Z,10.37
2023-03-22T11:21:05.855Z,7.30
2023-03-22T11:26:11.606Z,7.63
2023-03-22T11:31:16.895Z,7.20
2023-03-22T11:36:19.546Z,10.80
2023-03-22T11:41:27.932Z,9.67
2023-03-22T11:46:31.900Z,6.30
2023-03-22T11:51:37.672Z,9.63
2023-03-22T11:56:43.551Z,10.20
2023-03-22T12:01:51.528Z,9.13
2023-03-22T12:06:58.308Z,9.20
2023-03-22T12:12:03.610Z,7.83
2023-03-22T12:17:18.585Z,6.67
2023-03-22T12:22:32.754Z,9.13
2023-03-22T12:27:39.728Z,6.90
2023-03-22T12:32:53.887Z,9.23
2023-03-22T12:38:01.853Z,7.23
2023-03-22T12:44:00.291Z,7.43
2023-03-22T12:49:21.597Z,7.43
2023-03-22T12:54:26.684Z,9.77
2023-03-22T12:59:31.354Z,6.47
2023-03-22T13:04:36.598Z,9.47
2023-03-22T13:09:51.223Z,10.07
2023-03-22T13:15:01.019Z,9.67
2023-03-22T13:20:12.227Z,7.17
2023-03-22T13:25:19.025Z,9.43
2023-03-22T13:30:24.214Z,6.77
2023-03-22T13:35:51.132Z,7.20
2023-03-22T13:40:56.838Z,8.03
2023-03-22T13:46:11.754Z,6.90
2023-03-22T13:51:34.654Z,3.37
2023-03-22T13:56:56.400Z,11.20
2023-03-22T14:01:59.120Z,4.87
2023-03-22T14:07:25.882Z,3.97
2023-03-22T14:12:53.937Z,5.87
2023-03-22T14:18:06.856Z,4.03
